sensor_id;sensor_type;location;lat;lon;timestamp;P1;durP1;ratioP1;P2;durP2;ratioP2
23438;SDS011;11892;48.838;9.330;2022-07-05T00:00:36;2.73;;;1.60;;
23438;SDS011;11892;48.838;9.330;2022-07-05T00:03:02;5.67;;;1.77;;
23438;SDS011;11892;48.838;9.330;2022-07-05T00:05:28;3.77;;;1.53;;
23438;SDS011;11892;48.838;9.330;2022-07-05T00:07:55;3.10;;;1.77;;
23438;SDS011;11892;48.838;9.330;2022-07-05T00:10:21;3.83;;;1.60;;
23438;SDS011;11892;48.838;9.330;2022-07-05T00:12:49;2.47;;;1.57;;
23438;SDS011;11892;48.838;9.330;2022-07-05T00:15:15;7.87;;;2.00;;
23438;SDS011;11892;48.838;9.330;2022-07-05T00:17:40;4.63;;;1.70;;
23438;SDS011;11892;48.838;9.330;2022-07-05T00:20:07;2.80;;;1.60;;
23438;SDS011;11892;48.838;9.330;2022-07-05T00:22:33;4.53;;;1.43;;
23438;SDS011;11892;48.838;9.330;2022-07-05T00:25:01;4.67;;;1.70;;
23438;SDS011;11892;48.838;9.330;2022-07-05T00:27:27;3.63;;;1.40;;
23438;SDS011;11892;48.838;9.330;2022-07-05T00:29:53;2.40;;;1.50;;
23438;SDS011;11892;48.838;9.330;2022-07-05T00:32:19;2.10;;;1.63;;
23438;SDS011;11892;48.838;9.330;2022-07-05T00:34:47;2.23;;;1.80;;
23438;SDS011;11892;48.838;9.330;2022-07-05T00:37:13;6.40;;;2.03;;
23438;SDS011;11892;48.838;9.330;2022-07-05T00:39:39;2.53;;;1.50;;
23438;SDS011;11892;48.838;9.330;2022-07-05T00:42:08;4.73;;;1.90;;
23438;SDS011;11892;48.838;9.330;2022-07-05T00:44:36;2.67;;;1.80;;
23438;SDS011;11892;48.838;9.330;2022-07-05T00:47:07;3.17;;;2.03;;
23438;SDS011;11892;48.838;9.330;2022-07-05T00:49:34;4.67;;;1.77;;
23438;SDS011;11892;48.838;9.330;2022-07-05T00:52:01;2.63;;;1.57;;
23438;SDS011;11892;48.838;9.330;2022-07-05T00:54:28;7.63;;;2.00;;
23438;SDS011;11892;48.838;9.330;2022-07-05T00:56:57;3.60;;;1.67;;
23438;SDS011;11892;48.838;9.330;2022-07-05T00:59:25;5.30;;;1.60;;
23438;SDS011;11892;48.838;9.330;2022-07-05T01:01:51;5.10;;;1.90;;
23438;SDS011;11892;48.838;9.330;2022-07-05T01:04:22;1.87;;;1.40;;
23438;SDS011;11892;48.838;9.330;2022-07-05T01:06:49;3.07;;;1.70;;
23438;SDS011;11892;48.838;9.330;2022-07-05T01:09:17;3.03;;;1.60;;
23438;SDS011;11892;48.838;9.330;2022-07-05T01:11:44;4.70;;;1.73;;
23438;SDS011;11892;48.838;9.330;2022-07-05T01:14:11;4.53;;;1.80;;
23438;SDS011;11892;48.838;9.330;2022-07-05T01:16:44;3.50;;;1.63;;
23438;SDS011;11892;48.838;9.330;2022-07-05T01:19:12;4.37;;;2.13;;
23438;SDS011;11892;48.838;9.330;2022-07-05T01:21:42;4.93;;;2.03;;
23438;SDS011;11892;48.838;9.330;2022-07-05T01:24:11;3.83;;;1.77;;
23438;SDS011;11892;48.838;9.330;2022-07-05T01:26:39;2.73;;;2.10;;
23438;SDS011;11892;48.838;9.330;2022-07-05T01:29:06;3.33;;;1.93;;
23438;SDS011;11892;48.838;9.330;2022-07-05T01:31:33;3.87;;;2.00;;
23438;SDS011;11892;48.838;9.330;2022-07-05T01:34:01;5.13;;;2.10;;
23438;SDS011;11892;48.838;9.330;2022-07-05T01:36:27;4.43;;;2.17;;
23438;SDS011;11892;48.838;9.330;2022-07-05T01:38:54;5.87;;;2.00;;
23438;SDS011;11892;48.838;9.330;2022-07-05T01:41:21;5.07;;;2.23;;
23438;SDS011;11892;48.838;9.330;2022-07-05T01:43:47;4.63;;;1.90;;
23438;SDS011;11892;48.838;9.330;2022-07-05T01:46:13;3.00;;;2.33;;
23438;SDS011;11892;48.838;9.330;2022-07-05T01:48:41;3.90;;;2.60;;
23438;SDS011;11892;48.838;9.330;2022-07-05T01:51:10;3.80;;;2.43;;
23438;SDS011;11892;48.838;9.330;2022-07-05T01:53:41;4.97;;;2.33;;
23438;SDS011;11892;48.838;9.330;2022-07-05T01:56:09;4.17;;;1.90;;
23438;SDS011;11892;48.838;9.330;2022-07-05T01:58:37;3.63;;;2.13;;
23438;SDS011;11892;48.838;9.330;2022-07-05T02:01:04;2.77;;;2.00;;
23438;SDS011;11892;48.838;9.330;2022-07-05T02:03:30;4.30;;;2.40;;
23438;SDS011;11892;48.838;9.330;2022-07-05T02:05:58;2.70;;;2.00;;
23438;SDS011;11892;48.838;9.330;2022-07-05T02:08:28;3.37;;;2.00;;
23438;SDS011;11892;48.838;9.330;2022-07-05T02:10:55;3.47;;;2.00;;
23438;SDS011;11892;48.838;9.330;2022-07-05T02:13:22;6.70;;;2.50;;
23438;SDS011;11892;48.838;9.330;2022-07-05T02:15:50;6.60;;;2.43;;
23438;SDS011;11892;48.838;9.330;2022-07-05T02:18:16;2.67;;;2.37;;
23438;SDS011;11892;48.838;9.330;2022-07-05T02:20:43;3.07;;;2.20;;
23438;SDS011;11892;48.838;9.330;2022-07-05T02:23:10;2.60;;;2.10;;
23438;SDS011;11892;48.838;9.330;2022-07-05T02:25:38;4.20;;;2.47;;
23438;SDS011;11892;48.838;9.330;2022-07-05T02:28:10;2.43;;;2.00;;
23438;SDS011;11892;48.838;9.330;2022-07-05T02:30:38;4.77;;;2.30;;
23438;SDS011;11892;48.838;9.330;2022-07-05T02:33:06;5.67;;;2.50;;
23438;SDS011;11892;48.838;9.330;2022-07-05T02:35:32;3.47;;;2.37;;
23438;SDS011;11892;48.838;9.330;2022-07-05T02:37:58;7.23;;;2.30;;
23438;SDS011;11892;48.838;9.330;2022-07-05T02:40:24;4.03;;;2.30;;
23438;SDS011;11892;48.838;9.330;2022-07-05T02:42:51;3.03;;;1.93;;
23438;SDS011;11892;48.838;9.330;2022-07-05T02:45:18;4.43;;;2.27;;
23438;SDS011;11892;48.838;9.330;2022-07-05T02:47:49;3.37;;;2.20;;
23438;SDS011;11892;48.838;9.330;2022-07-05T02:50:17;5.10;;;1.80;;
23438;SDS011;11892;48.838;9.330;2022-07-05T02:52:47;3.17;;;2.07;;
23438;SDS011;11892;48.838;9.330;2022-07-05T02:55:15;3.00;;;1.90;;
23438;SDS011;11892;48.838;9.330;2022-07-05T02:57:42;3.93;;;1.90;;
23438;SDS011;11892;48.838;9.330;2022-07-05T03:00:11;2.27;;;2.03;;
23438;SDS011;11892;48.838;9.330;2022-07-05T03:02:42;8.40;;;2.30;;
23438;SDS011;11892;48.838;9.330;2022-07-05T03:05:09;3.07;;;2.40;;
23438;SDS011;11892;48.838;9.330;2022-07-05T03:07:38;7.17;;;4.50;;
23438;SDS011;11892;48.838;9.330;2022-07-05T03:10:05;8.07;;;4.90;;
23438;SDS011;11892;48.838;9.330;2022-07-05T03:12:33;14.47;;;4.77;;
23438;SDS011;11892;48.838;9.330;2022-07-05T03:15:00;5.90;;;3.90;;
23438;SDS011;11892;48.838;9.330;2022-07-05T03:17:26;10.90;;;4.70;;
23438;SDS011;11892;48.838;9.330;2022-07-05T03:19:52;10.97;;;4.73;;
23438;SDS011;11892;48.838;9.330;2022-07-05T03:22:21;7.67;;;4.53;;
23438;SDS011;11892;48.838;9.330;2022-07-05T03:24:49;9.17;;;4.70;;
23438;SDS011;11892;48.838;9.330;2022-07-05T03:27:17;10.03;;;5.00;;
23438;SDS011;11892;48.838;9.330;2022-07-05T03:29:46;9.87;;;4.27;;
23438;SDS011;11892;48.838;9.330;2022-07-05T03:32:11;6.77;;;4.83;;
23438;SDS011;11892;48.838;9.330;2022-07-05T03:34:38;6.70;;;3.67;;
23438;SDS011;11892;48.838;9.330;2022-07-05T03:37:06;5.83;;;3.87;;
23438;SDS011;11892;48.838;9.330;2022-07-05T03:39:32;8.17;;;3.17;;
23438;SDS011;11892;48.838;9.330;2022-07-05T03:42:00;3.43;;;2.83;;
23438;SDS011;11892;48.838;9.330;2022-07-05T03:44:28;8.37;;;3.07;;
23438;SDS011;11892;48.838;9.330;2022-07-05T03:46:59;4.63;;;3.13;;
23438;SDS011;11892;48.838;9.330;2022-07-05T03:49:26;4.57;;;2.97;;
23438;SDS011;11892;48.838;9.330;2022-07-05T03:51:53;12.00;;;3.20;;
23438;SDS011;11892;48.838;9.330;2022-07-05T03:54:19;5.53;;;2.47;;
23438;SDS011;11892;48.838;9.330;2022-07-05T03:56:45;8.07;;;2.87;;
23438;SDS011;11892;48.838;9.330;2022-07-05T03:59:16;5.63;;;2.80;;
23438;SDS011;11892;48.838;9.330;2022-07-05T04:01:43;3.73;;;2.80;;
23438;SDS011;11892;48.838;9.330;2022-07-05T04:04:11;3.87;;;2.70;;
23438;SDS011;11892;48.838;9.330;2022-07-05T04:06:37;4.83;;;2.60;;
23438;SDS011;11892;48.838;9.330;2022-07-05T04:09:03;7.73;;;2.90;;
23438;SDS011;11892;48.838;9.330;2022-07-05T04:11:30;5.67;;;3.00;;
23438;SDS011;11892;48.838;9.330;2022-07-05T04:13:57;3.53;;;2.80;;
23438;SDS011;11892;48.838;9.330;2022-07-05T04:16:25;7.53;;;3.00;;
23438;SDS011;11892;48.838;9.330;2022-07-05T04:18:52;10.47;;;3.00;;
23438;SDS011;11892;48.838;9.330;2022-07-05T04:21:19;4.73;;;2.67;;
23438;SDS011;11892;48.838;9.330;2022-07-05T04:23:47;6.17;;;2.97;;
23438;SDS011;11892;48.838;9.330;2022-07-05T04:26:15;5.13;;;2.77;;
23438;SDS011;11892;48.838;9.330;2022-07-05T04:28:43;4.80;;;2.37;;
23438;SDS011;11892;48.838;9.330;2022-07-05T04:31:13;7.23;;;2.30;;
23438;SDS011;11892;48.838;9.330;2022-07-05T04:33:44;4.60;;;2.00;;
23438;SDS011;11892;48.838;9.330;2022-07-05T04:36:14;2.73;;;2.30;;
23438;SDS011;11892;48.838;9.330;2022-07-05T04:38:40;4.23;;;2.57;;
23438;SDS011;11892;48.838;9.330;2022-07-05T04:41:07;7.37;;;3.17;;
23438;SDS011;11892;48.838;9.330;2022-07-05T04:43:34;4.77;;;2.73;;
23438;SDS011;11892;48.838;9.330;2022-07-05T04:46:04;4.23;;;2.87;;
23438;SDS011;11892;48.838;9.330;2022-07-05T04:48:33;7.20;;;2.53;;
23438;SDS011;11892;48.838;9.330;2022-07-05T04:51:02;3.77;;;2.63;;
23438;SDS011;11892;48.838;9.330;2022-07-05T04:53:31;4.37;;;2.93;;
23438;SDS011;11892;48.838;9.330;2022-07-05T04:55:57;5.60;;;2.67;;
23438;SDS011;11892;48.838;9.330;2022-07-05T04:58:23;2.53;;;2.33;;
23438;SDS011;11892;48.838;9.330;2022-07-05T05:00:49;4.07;;;2.67;;
23438;SDS011;11892;48.838;9.330;2022-07-05T05:03:15;4.07;;;2.40;;
23438;SDS011;11892;48.838;9.330;2022-07-05T05:05:41;7.90;;;2.60;;
23438;SDS011;11892;48.838;9.330;2022-07-05T05:08:08;3.43;;;2.80;;
23438;SDS011;11892;48.838;9.330;2022-07-05T05:10:34;3.80;;;2.20;;
23438;SDS011;11892;48.838;9.330;2022-07-05T05:13:00;2.70;;;2.00;;
23438;SDS011;11892;48.838;9.330;2022-07-05T05:15:26;2.60;;;2.30;;
23438;SDS011;11892;48.838;9.330;2022-07-05T05:17:52;5.30;;;2.23;;
23438;SDS011;11892;48.838;9.330;2022-07-05T05:20:18;4.80;;;2.50;;
23438;SDS011;11892;48.838;9.330;2022-07-05T05:22:44;6.47;;;3.00;;
23438;SDS011;11892;48.838;9.330;2022-07-05T05:25:12;7.00;;;2.70;;
23438;SDS011;11892;48.838;9.330;2022-07-05T05:27:42;5.97;;;3.20;;
23438;SDS011;11892;48.838;9.330;2022-07-05T05:30:09;9.87;;;3.20;;
23438;SDS011;11892;48.838;9.330;2022-07-05T05:32:36;8.23;;;3.30;;
23438;SDS011;11892;48.838;9.330;2022-07-05T05:35:02;7.37;;;3.30;;
23438;SDS011;11892;48.838;9.330;2022-07-05T05:37:29;4.63;;;3.30;;
23438;SDS011;11892;48.838;9.330;2022-07-05T05:39:55;5.93;;;3.80;;
23438;SDS011;11892;48.838;9.330;2022-07-05T05:42:22;8.90;;;3.90;;
23438;SDS011;11892;48.838;9.330;2022-07-05T05:44:48;7.70;;;3.33;;
23438;SDS011;11892;48.838;9.330;2022-07-05T05:47:14;7.87;;;3.13;;
23438;SDS011;11892;48.838;9.330;2022-07-05T05:49:40;9.53;;;3.80;;
23438;SDS011;11892;48.838;9.330;2022-07-05T05:52:09;4.40;;;3.20;;
23438;SDS011;11892;48.838;9.330;2022-07-05T05:54:34;5.13;;;3.07;;
23438;SDS011;11892;48.838;9.330;2022-07-05T05:57:00;6.63;;;3.20;;
23438;SDS011;11892;48.838;9.330;2022-07-05T05:59:30;6.73;;;3.40;;
23438;SDS011;11892;48.838;9.330;2022-07-05T06:01:56;9.20;;;3.60;;
23438;SDS011;11892;48.838;9.330;2022-07-05T06:04:22;9.77;;;3.60;;
23438;SDS011;11892;48.838;9.330;2022-07-05T06:06:48;8.33;;;3.73;;
23438;SDS011;11892;48.838;9.330;2022-07-05T06:09:14;10.90;;;3.53;;
23438;SDS011;11892;48.838;9.330;2022-07-05T06:11:40;4.40;;;2.90;;
23438;SDS011;11892;48.838;9.330;2022-07-05T06:14:06;7.32;;;3.30;;
23438;SDS011;11892;48.838;9.330;2022-07-05T06:16:33;5.23;;;3.10;;
23438;SDS011;11892;48.838;9.330;2022-07-05T06:18:59;3.47;;;2.90;;
23438;SDS011;11892;48.838;9.330;2022-07-05T06:21:25;6.87;;;3.07;;
23438;SDS011;11892;48.838;9.330;2022-07-05T06:23:51;4.50;;;2.30;;
23438;SDS011;11892;48.838;9.330;2022-07-05T06:26:17;3.50;;;2.47;;
23438;SDS011;11892;48.838;9.330;2022-07-05T06:28:43;6.10;;;2.60;;
23438;SDS011;11892;48.838;9.330;2022-07-05T06:31:09;8.23;;;2.37;;
23438;SDS011;11892;48.838;9.330;2022-07-05T06:33:36;6.73;;;2.60;;
23438;SDS011;11892;48.838;9.330;2022-07-05T06:36:02;2.73;;;1.63;;
23438;SDS011;11892;48.838;9.330;2022-07-05T06:38:29;4.17;;;1.70;;
23438;SDS011;11892;48.838;9.330;2022-07-05T06:40:54;6.93;;;2.63;;
23438;SDS011;11892;48.838;9.330;2022-07-05T06:43:22;4.20;;;1.80;;
23438;SDS011;11892;48.838;9.330;2022-07-05T06:46:07;4.67;;;1.90;;
23438;SDS011;11892;48.838;9.330;2022-07-05T06:48:33;4.03;;;1.30;;
23438;SDS011;11892;48.838;9.330;2022-07-05T06:51:00;3.70;;;1.30;;
23438;SDS011;11892;48.838;9.330;2022-07-05T06:53:26;6.50;;;1.90;;
23438;SDS011;11892;48.838;9.330;2022-07-05T06:55:52;6.43;;;1.40;;
23438;SDS011;11892;48.838;9.330;2022-07-05T06:58:19;2.67;;;1.40;;
23438;SDS011;11892;48.838;9.330;2022-07-05T07:00:45;2.17;;;1.13;;
23438;SDS011;11892;48.838;9.330;2022-07-05T07:03:11;4.20;;;1.30;;
23438;SDS011;11892;48.838;9.330;2022-07-05T07:05:36;3.37;;;1.00;;
23438;SDS011;11892;48.838;9.330;2022-07-05T07:08:04;1.73;;;1.10;;
23438;SDS011;11892;48.838;9.330;2022-07-05T07:10:51;2.63;;;1.40;;
23438;SDS011;11892;48.838;9.330;2022-07-05T07:13:17;3.70;;;1.10;;
23438;SDS011;11892;48.838;9.330;2022-07-05T07:15:44;4.03;;;1.10;;
23438;SDS011;11892;48.838;9.330;2022-07-05T07:18:13;2.53;;;1.17;;
23438;SDS011;11892;48.838;9.330;2022-07-05T07:20:39;4.47;;;1.30;;
23438;SDS011;11892;48.838;9.330;2022-07-05T07:23:06;3.40;;;1.30;;
23438;SDS011;11892;48.838;9.330;2022-07-05T07:25:32;4.70;;;1.50;;
23438;SDS011;11892;48.838;9.330;2022-07-05T07:27:59;4.03;;;1.53;;
23438;SDS011;11892;48.838;9.330;2022-07-05T07:30:28;4.97;;;1.33;;
23438;SDS011;11892;48.838;9.330;2022-07-05T07:32:54;5.00;;;1.60;;
23438;SDS011;11892;48.838;9.330;2022-07-05T07:35:20;3.70;;;1.73;;
23438;SDS011;11892;48.838;9.330;2022-07-05T07:37:46;3.47;;;1.50;;
23438;SDS011;11892;48.838;9.330;2022-07-05T07:40:13;6.03;;;1.67;;
23438;SDS011;11892;48.838;9.330;2022-07-05T07:42:39;6.97;;;1.60;;
23438;SDS011;11892;48.838;9.330;2022-07-05T07:45:06;5.00;;;1.50;;
23438;SDS011;11892;48.838;9.330;2022-07-05T07:47:34;5.13;;;1.50;;
23438;SDS011;11892;48.838;9.330;2022-07-05T07:50:00;5.20;;;1.53;;
23438;SDS011;11892;48.838;9.330;2022-07-05T07:52:27;2.30;;;1.20;;
23438;SDS011;11892;48.838;9.330;2022-07-05T07:54:55;6.13;;;1.70;;
23438;SDS011;11892;48.838;9.330;2022-07-05T07:57:22;4.53;;;1.47;;
23438;SDS011;11892;48.838;9.330;2022-07-05T07:59:48;5.33;;;1.70;;
23438;SDS011;11892;48.838;9.330;2022-07-05T08:02:14;3.43;;;1.60;;
23438;SDS011;11892;48.838;9.330;2022-07-05T08:04:41;9.53;;;1.80;;
23438;SDS011;11892;48.838;9.330;2022-07-05T08:07:07;4.43;;;2.27;;
23438;SDS011;11892;48.838;9.330;2022-07-05T08:09:33;5.27;;;1.60;;
23438;SDS011;11892;48.838;9.330;2022-07-05T08:11:59;6.97;;;1.80;;
23438;SDS011;11892;48.838;9.330;2022-07-05T08:14:26;8.53;;;2.10;;
23438;SDS011;11892;48.838;9.330;2022-07-05T08:16:52;8.57;;;2.27;;
23438;SDS011;11892;48.838;9.330;2022-07-05T08:19:19;5.93;;;1.70;;
23438;SDS011;11892;48.838;9.330;2022-07-05T08:22:04;5.97;;;1.90;;
23438;SDS011;11892;48.838;9.330;2022-07-05T08:24:32;6.03;;;1.80;;
23438;SDS011;11892;48.838;9.330;2022-07-05T08:26:59;7.27;;;2.10;;
23438;SDS011;11892;48.838;9.330;2022-07-05T08:29:26;8.77;;;1.70;;
23438;SDS011;11892;48.838;9.330;2022-07-05T08:31:52;9.20;;;1.63;;
23438;SDS011;11892;48.838;9.330;2022-07-05T08:34:18;4.27;;;1.93;;
23438;SDS011;11892;48.838;9.330;2022-07-05T08:36:44;5.03;;;1.67;;
23438;SDS011;11892;48.838;9.330;2022-07-05T08:39:10;14.20;;;2.13;;
23438;SDS011;11892;48.838;9.330;2022-07-05T08:41:38;7.67;;;1.70;;
23438;SDS011;11892;48.838;9.330;2022-07-05T08:44:05;6.10;;;1.67;;
23438;SDS011;11892;48.838;9.330;2022-07-05T08:46:33;19.73;;;2.30;;
23438;SDS011;11892;48.838;9.330;2022-07-05T08:49:02;3.63;;;1.43;;
23438;SDS011;11892;48.838;9.330;2022-07-05T08:51:32;2.83;;;1.50;;
23438;SDS011;11892;48.838;9.330;2022-07-05T08:54:01;7.67;;;1.77;;
23438;SDS011;11892;48.838;9.330;2022-07-05T08:56:28;4.60;;;1.43;;
23438;SDS011;11892;48.838;9.330;2022-07-05T08:58:55;3.27;;;1.33;;
23438;SDS011;11892;48.838;9.330;2022-07-05T09:01:21;2.93;;;1.00;;
23438;SDS011;11892;48.838;9.330;2022-07-05T09:03:51;6.43;;;1.30;;
23438;SDS011;11892;48.838;9.330;2022-07-05T09:06:18;10.20;;;1.10;;
23438;SDS011;11892;48.838;9.330;2022-07-05T09:08:45;3.97;;;1.00;;
23438;SDS011;11892;48.838;9.330;2022-07-05T09:11:14;3.23;;;1.13;;
23438;SDS011;11892;48.838;9.330;2022-07-05T09:13:42;5.00;;;1.00;;
23438;SDS011;11892;48.838;9.330;2022-07-05T09:16:09;3.03;;;0.83;;
23438;SDS011;11892;48.838;9.330;2022-07-05T09:18:40;3.23;;;1.00;;
23438;SDS011;11892;48.838;9.330;2022-07-05T09:21:15;5.50;;;0.80;;
23438;SDS011;11892;48.838;9.330;2022-07-05T09:23:42;4.77;;;0.90;;
23438;SDS011;11892;48.838;9.330;2022-07-05T09:26:08;3.33;;;0.67;;
23438;SDS011;11892;48.838;9.330;2022-07-05T09:28:35;4.13;;;0.83;;
23438;SDS011;11892;48.838;9.330;2022-07-05T09:31:01;3.17;;;0.80;;
23438;SDS011;11892;48.838;9.330;2022-07-05T09:33:27;7.83;;;1.00;;
23438;SDS011;11892;48.838;9.330;2022-07-05T09:35:54;5.47;;;0.90;;
23438;SDS011;11892;48.838;9.330;2022-07-05T09:38:24;1.23;;;0.60;;
23438;SDS011;11892;48.838;9.330;2022-07-05T09:40:52;0.63;;;0.60;;
23438;SDS011;11892;48.838;9.330;2022-07-05T09:43:19;6.60;;;1.03;;
23438;SDS011;11892;48.838;9.330;2022-07-05T09:45:50;3.58;;;1.02;;
23438;SDS011;11892;48.838;9.330;2022-07-05T09:48:20;1.45;;;0.80;;
23438;SDS011;11892;48.838;9.330;2022-07-05T09:50:47;1.13;;;0.82;;
23438;SDS011;11892;48.838;9.330;2022-07-05T09:53:15;3.50;;;0.77;;
23438;SDS011;11892;48.838;9.330;2022-07-05T09:55:43;4.50;;;0.67;;
23438;SDS011;11892;48.838;9.330;2022-07-05T09:58:25;2.77;;;0.70;;
23438;SDS011;11892;48.838;9.330;2022-07-05T10:00:51;3.35;;;0.77;;
23438;SDS011;11892;48.838;9.330;2022-07-05T10:03:17;4.30;;;1.27;;
23438;SDS011;11892;48.838;9.330;2022-07-05T10:05:43;4.55;;;0.90;;
23438;SDS011;11892;48.838;9.330;2022-07-05T10:08:09;5.03;;;1.42;;
23438;SDS011;11892;48.838;9.330;2022-07-05T10:10:38;5.20;;;1.08;;
23438;SDS011;11892;48.838;9.330;2022-07-05T10:13:07;2.38;;;0.68;;
23438;SDS011;11892;48.838;9.330;2022-07-05T10:15:34;1.77;;;0.77;;
23438;SDS011;11892;48.838;9.330;2022-07-05T10:18:02;4.88;;;0.80;;
23438;SDS011;11892;48.838;9.330;2022-07-05T10:20:38;2.13;;;0.73;;
23438;SDS011;11892;48.838;9.330;2022-07-05T10:23:08;1.73;;;0.50;;
23438;SDS011;11892;48.838;9.330;2022-07-05T10:25:36;3.70;;;0.73;;
23438;SDS011;11892;48.838;9.330;2022-07-05T10:28:03;1.50;;;0.60;;
23438;SDS011;11892;48.838;9.330;2022-07-05T10:30:31;1.58;;;0.55;;
23438;SDS011;11892;48.838;9.330;2022-07-05T10:32:58;1.17;;;0.47;;
23438;SDS011;11892;48.838;9.330;2022-07-05T10:35:28;0.63;;;0.40;;
23438;SDS011;11892;48.838;9.330;2022-07-05T10:37:55;1.75;;;0.60;;
23438;SDS011;11892;48.838;9.330;2022-07-05T10:40:22;2.58;;;0.70;;
23438;SDS011;11892;48.838;9.330;2022-07-05T10:42:48;4.82;;;0.50;;
23438;SDS011;11892;48.838;9.330;2022-07-05T10:45:21;5.07;;;0.82;;
23438;SDS011;11892;48.838;9.330;2022-07-05T10:48:14;5.68;;;0.50;;
23438;SDS011;11892;48.838;9.330;2022-07-05T10:50:45;2.75;;;0.60;;
23438;SDS011;11892;48.838;9.330;2022-07-05T10:53:16;0.63;;;0.40;;
23438;SDS011;11892;48.838;9.330;2022-07-05T10:55:46;2.88;;;0.60;;
23438;SDS011;11892;48.838;9.330;2022-07-05T10:58:26;2.33;;;0.77;;
23438;SDS011;11892;48.838;9.330;2022-07-05T11:04:21;4.00;;;0.52;;
23438;SDS011;11892;48.838;9.330;2022-07-05T11:06:55;0.57;;;0.55;;
23438;SDS011;11892;48.838;9.330;2022-07-05T11:09:22;0.43;;;0.30;;
23438;SDS011;11892;48.838;9.330;2022-07-05T11:12:01;1.20;;;0.32;;
23438;SDS011;11892;48.838;9.330;2022-07-05T11:14:37;3.70;;;0.80;;
23438;SDS011;11892;48.838;9.330;2022-07-05T11:20:00;3.22;;;0.80;;
23438;SDS011;11892;48.838;9.330;2022-07-05T11:22:31;1.58;;;0.70;;
23438;SDS011;11892;48.838;9.330;2022-07-05T11:25:04;1.17;;;0.63;;
23438;SDS011;11892;48.838;9.330;2022-07-05T11:27:32;5.00;;;1.20;;
23438;SDS011;11892;48.838;9.330;2022-07-05T11:29:59;1.85;;;0.60;;
23438;SDS011;11892;48.838;9.330;2022-07-05T11:32:34;4.63;;;1.27;;
23438;SDS011;11892;48.838;9.330;2022-07-05T11:35:13;2.70;;;1.00;;
23438;SDS011;11892;48.838;9.330;2022-07-05T11:37:56;5.95;;;1.02;;
23438;SDS011;11892;48.838;9.330;2022-07-05T11:40:29;1.80;;;0.73;;
23438;SDS011;11892;48.838;9.330;2022-07-05T11:42:56;5.47;;;0.88;;
23438;SDS011;11892;48.838;9.330;2022-07-05T11:45:22;1.60;;;0.60;;
23438;SDS011;11892;48.838;9.330;2022-07-05T11:47:49;4.07;;;0.80;;
23438;SDS011;11892;48.838;9.330;2022-07-05T11:50:24;2.38;;;0.63;;
23438;SDS011;11892;48.838;9.330;2022-07-05T11:52:54;4.78;;;0.70;;
23438;SDS011;11892;48.838;9.330;2022-07-05T11:55:20;5.13;;;1.20;;
23438;SDS011;11892;48.838;9.330;2022-07-05T11:57:50;2.40;;;0.57;;
23438;SDS011;11892;48.838;9.330;2022-07-05T12:00:26;2.60;;;0.50;;
23438;SDS011;11892;48.838;9.330;2022-07-05T12:02:54;3.28;;;0.60;;
23438;SDS011;11892;48.838;9.330;2022-07-05T12:05:21;3.10;;;0.75;;
23438;SDS011;11892;48.838;9.330;2022-07-05T12:07:49;5.50;;;0.60;;
23438;SDS011;11892;48.838;9.330;2022-07-05T12:10:16;3.10;;;0.82;;
23438;SDS011;11892;48.838;9.330;2022-07-05T12:13:04;2.20;;;0.65;;
23438;SDS011;11892;48.838;9.330;2022-07-05T12:15:31;2.70;;;0.55;;
23438;SDS011;11892;48.838;9.330;2022-07-05T12:17:57;1.70;;;0.52;;
23438;SDS011;11892;48.838;9.330;2022-07-05T12:20:30;2.10;;;0.57;;
23438;SDS011;11892;48.838;9.330;2022-07-05T12:22:57;2.47;;;0.47;;
23438;SDS011;11892;48.838;9.330;2022-07-05T12:25:26;3.10;;;0.50;;
23438;SDS011;11892;48.838;9.330;2022-07-05T12:27:54;3.13;;;0.50;;
23438;SDS011;11892;48.838;9.330;2022-07-05T12:30:24;2.67;;;0.70;;
23438;SDS011;11892;48.838;9.330;2022-07-05T12:32:53;2.22;;;0.52;;
23438;SDS011;11892;48.838;9.330;2022-07-05T12:35:32;1.27;;;0.40;;
23438;SDS011;11892;48.838;9.330;2022-07-05T12:38:03;1.42;;;0.50;;
23438;SDS011;11892;48.838;9.330;2022-07-05T12:40:30;2.03;;;0.55;;
23438;SDS011;11892;48.838;9.330;2022-07-05T12:43:00;2.45;;;0.57;;
23438;SDS011;11892;48.838;9.330;2022-07-05T12:45:28;1.20;;;0.50;;
23438;SDS011;11892;48.838;9.330;2022-07-05T12:47:55;5.22;;;0.63;;
23438;SDS011;11892;48.838;9.330;2022-07-05T12:50:22;1.95;;;0.50;;
23438;SDS011;11892;48.838;9.330;2022-07-05T12:55:58;3.60;;;0.55;;
23438;SDS011;11892;48.838;9.330;2022-07-05T12:58:47;2.75;;;0.60;;
23438;SDS011;11892;48.838;9.330;2022-07-05T13:01:20;2.63;;;0.70;;
23438;SDS011;11892;48.838;9.330;2022-07-05T13:03:57;1.42;;;0.52;;
23438;SDS011;11892;48.838;9.330;2022-07-05T13:06:41;1.10;;;0.40;;
23438;SDS011;11892;48.838;9.330;2022-07-05T13:09:10;2.83;;;0.85;;
23438;SDS011;11892;48.838;9.330;2022-07-05T13:11:36;2.38;;;0.50;;
23438;SDS011;11892;48.838;9.330;2022-07-05T13:14:02;1.20;;;0.50;;
23438;SDS011;11892;48.838;9.330;2022-07-05T13:16:28;1.70;;;0.45;;
23438;SDS011;11892;48.838;9.330;2022-07-05T13:18:54;1.48;;;0.60;;
23438;SDS011;11892;48.838;9.330;2022-07-05T13:21:30;2.63;;;0.70;;
23438;SDS011;11892;48.838;9.330;2022-07-05T13:23:56;0.95;;;0.60;;
23438;SDS011;11892;48.838;9.330;2022-07-05T13:26:23;0.98;;;0.60;;
23438;SDS011;11892;48.838;9.330;2022-07-05T13:28:49;2.05;;;0.77;;
23438;SDS011;11892;48.838;9.330;2022-07-05T13:31:15;5.10;;;0.90;;
23438;SDS011;11892;48.838;9.330;2022-07-05T13:33:41;3.13;;;0.80;;
23438;SDS011;11892;48.838;9.330;2022-07-05T13:36:07;2.03;;;0.60;;
23438;SDS011;11892;48.838;9.330;2022-07-05T13:38:33;1.83;;;0.60;;
23438;SDS011;11892;48.838;9.330;2022-07-05T13:40:59;1.83;;;0.63;;
23438;SDS011;11892;48.838;9.330;2022-07-05T13:43:27;2.90;;;0.65;;
23438;SDS011;11892;48.838;9.330;2022-07-05T13:45:53;3.42;;;0.70;;
23438;SDS011;11892;48.838;9.330;2022-07-05T13:48:20;1.45;;;0.57;;
23438;SDS011;11892;48.838;9.330;2022-07-05T13:50:46;0.85;;;0.43;;
23438;SDS011;11892;48.838;9.330;2022-07-05T13:53:12;3.80;;;0.55;;
23438;SDS011;11892;48.838;9.330;2022-07-05T13:55:40;4.43;;;0.68;;
23438;SDS011;11892;48.838;9.330;2022-07-05T13:58:06;3.00;;;0.65;;
23438;SDS011;11892;48.838;9.330;2022-07-05T14:00:33;5.43;;;0.68;;
23438;SDS011;11892;48.838;9.330;2022-07-05T14:03:01;1.75;;;0.50;;
23438;SDS011;11892;48.838;9.330;2022-07-05T14:05:29;1.05;;;0.57;;
23438;SDS011;11892;48.838;9.330;2022-07-05T14:07:55;2.17;;;0.60;;
23438;SDS011;11892;48.838;9.330;2022-07-05T14:10:21;1.88;;;0.60;;
23438;SDS011;11892;48.838;9.330;2022-07-05T14:12:47;1.80;;;0.60;;
23438;SDS011;11892;48.838;9.330;2022-07-05T14:15:15;2.47;;;0.70;;
23438;SDS011;11892;48.838;9.330;2022-07-05T14:17:44;1.88;;;0.80;;
23438;SDS011;11892;48.838;9.330;2022-07-05T14:20:10;2.10;;;0.70;;
23438;SDS011;11892;48.838;9.330;2022-07-05T14:22:36;1.70;;;0.50;;
23438;SDS011;11892;48.838;9.330;2022-07-05T14:25:02;0.65;;;0.57;;
23438;SDS011;11892;48.838;9.330;2022-07-05T14:27:28;0.70;;;0.50;;
23438;SDS011;11892;48.838;9.330;2022-07-05T14:29:54;2.08;;;0.70;;
23438;SDS011;11892;48.838;9.330;2022-07-05T14:32:20;2.47;;;0.50;;
23438;SDS011;11892;48.838;9.330;2022-07-05T14:34:47;1.75;;;0.60;;
23438;SDS011;11892;48.838;9.330;2022-07-05T14:37:13;0.70;;;0.50;;
23438;SDS011;11892;48.838;9.330;2022-07-05T14:39:39;5.60;;;0.80;;
23438;SDS011;11892;48.838;9.330;2022-07-05T14:42:05;5.47;;;1.00;;
23438;SDS011;11892;48.838;9.330;2022-07-05T14:44:31;4.50;;;0.50;;
23438;SDS011;11892;48.838;9.330;2022-07-05T14:47:00;2.10;;;1.00;;
23438;SDS011;11892;48.838;9.330;2022-07-05T14:49:26;2.38;;;0.68;;
23438;SDS011;11892;48.838;9.330;2022-07-05T14:51:53;2.20;;;0.52;;
23438;SDS011;11892;48.838;9.330;2022-07-05T14:54:19;1.33;;;0.50;;
23438;SDS011;11892;48.838;9.330;2022-07-05T14:56:48;3.83;;;0.70;;
23438;SDS011;11892;48.838;9.330;2022-07-05T14:59:14;2.90;;;0.80;;
23438;SDS011;11892;48.838;9.330;2022-07-05T15:01:41;4.03;;;0.68;;